Portada
METAR-TAF:

METAR-TAF

Aeroports :

Nukus, Uzbekistan

latitud: 42-28-48N, longitud: 059-37-48E, altitud: 77 m

Observació

L'informe es va fer fa 32 minuts, a les 00:30 UTC
Vent 6 kt del Est
Temperatura -1°C
Humitat 74%
Pressió 1023 hPa
Visibilitat 10 km o més
sense núvols per sota de 1500 mi sense presència de cumulonimbus.

METAR: UTNN 200030Z 10006KT CAVOK M01/M05 Q1023 R15/CLRD60 NOSIG

Hora: 06:02 (01:02 UTC)

Pronòstic

L'informe es va fer fa 2 hores i 2 minuts, a les 23:00 UTC
Pronòstic vàlid del 20 a les 00 UTC al 20 a les 24 UTC
Vent 8 kt del Est
Visibilitat 10 km o més
sense núvols per sota de 1500 mi sense presència de cumulonimbus.
Temporalment
l' 20 a les 06 UTC al 20 a les 12 UTC
Vent 10 kt del Est/Sud-Est amb ràfegues de 20 kt

TAF: UTNN 192300Z 2000/2024 09008KT CAVOK TEMPO 2006/2012 12010G20KT

Observacions i pronòstics meteorològics de més de 4000 aeroports (METAR i TAF).

Les estacions disponibles són els punts grocs i vermells al mapa.

Posi el ratolí al punt desitjat per veure el nom de l'estació.

Feu clic per veure les observacions i els pronòstics meteorològics.

Per canviar el mapa: feu clic els botons verds amb una creu de color negre per apropar; al botó verd amb un guió per allunyar la imatge; o en les fletxes verdes per a mapes adjacents.


METAR-TAF: